sensor_id;sensor_type;location;lat;lon;timestamp;P1;durP1;ratioP1;P2;durP2;ratioP2
35835;SDS011;21955;50.580;7.228;2023-01-28T00:01:26;6.60;;;4.18;;
35835;SDS011;21955;50.580;7.228;2023-01-28T00:03:54;7.07;;;3.63;;
35835;SDS011;21955;50.580;7.228;2023-01-28T00:06:22;5.93;;;3.80;;
35835;SDS011;21955;50.580;7.228;2023-01-28T00:08:49;6.03;;;4.03;;
35835;SDS011;21955;50.580;7.228;2023-01-28T00:11:16;5.68;;;3.75;;
35835;SDS011;21955;50.580;7.228;2023-01-28T00:13:44;6.07;;;3.83;;
35835;SDS011;21955;50.580;7.228;2023-01-28T00:16:12;7.45;;;3.80;;
35835;SDS011;21955;50.580;7.228;2023-01-28T00:18:39;4.93;;;3.40;;
35835;SDS011;21955;50.580;7.228;2023-01-28T00:21:09;5.50;;;3.90;;
35835;SDS011;21955;50.580;7.228;2023-01-28T00:23:38;4.65;;;3.38;;
35835;SDS011;21955;50.580;7.228;2023-01-28T00:26:07;6.05;;;3.58;;
35835;SDS011;21955;50.580;7.228;2023-01-28T00:28:34;5.33;;;3.60;;
35835;SDS011;21955;50.580;7.228;2023-01-28T00:31:04;5.28;;;3.40;;
35835;SDS011;21955;50.580;7.228;2023-01-28T00:33:32;5.03;;;3.20;;
35835;SDS011;21955;50.580;7.228;2023-01-28T00:35:59;6.00;;;3.70;;
35835;SDS011;21955;50.580;7.228;2023-01-28T00:38:27;5.70;;;3.37;;
35835;SDS011;21955;50.580;7.228;2023-01-28T00:41:05;4.85;;;3.50;;
35835;SDS011;21955;50.580;7.228;2023-01-28T00:43:32;5.78;;;3.55;;
35835;SDS011;21955;50.580;7.228;2023-01-28T00:45:59;4.95;;;3.22;;
35835;SDS011;21955;50.580;7.228;2023-01-28T00:48:36;4.43;;;3.20;;
35835;SDS011;21955;50.580;7.228;2023-01-28T00:51:04;4.80;;;3.43;;
35835;SDS011;21955;50.580;7.228;2023-01-28T00:53:31;5.53;;;3.28;;
35835;SDS011;21955;50.580;7.228;2023-01-28T00:56:01;5.25;;;3.28;;
35835;SDS011;21955;50.580;7.228;2023-01-28T00:58:28;4.55;;;3.28;;
35835;SDS011;21955;50.580;7.228;2023-01-28T01:00:55;4.45;;;3.05;;
35835;SDS011;21955;50.580;7.228;2023-01-28T01:03:22;4.80;;;3.30;;
35835;SDS011;21955;50.580;7.228;2023-01-28T01:05:50;5.38;;;3.38;;
35835;SDS011;21955;50.580;7.228;2023-01-28T01:08:17;5.90;;;3.20;;
35835;SDS011;21955;50.580;7.228;2023-01-28T01:10:44;5.20;;;3.40;;
35835;SDS011;21955;50.580;7.228;2023-01-28T01:13:12;5.80;;;3.38;;
35835;SDS011;21955;50.580;7.228;2023-01-28T01:15:39;5.60;;;3.08;;
35835;SDS011;21955;50.580;7.228;2023-01-28T01:18:07;6.38;;;3.40;;
35835;SDS011;21955;50.580;7.228;2023-01-28T01:20:34;4.70;;;3.28;;
35835;SDS011;21955;50.580;7.228;2023-01-28T01:23:03;5.07;;;3.13;;
35835;SDS011;21955;50.580;7.228;2023-01-28T01:25:31;5.20;;;3.20;;
35835;SDS011;21955;50.580;7.228;2023-01-28T01:27:58;5.97;;;3.35;;
35835;SDS011;21955;50.580;7.228;2023-01-28T01:30:27;5.45;;;3.15;;
35835;SDS011;21955;50.580;7.228;2023-01-28T01:32:54;5.45;;;3.15;;
35835;SDS011;21955;50.580;7.228;2023-01-28T01:35:21;4.60;;;3.33;;
35835;SDS011;21955;50.580;7.228;2023-01-28T01:37:48;4.40;;;3.08;;
35835;SDS011;21955;50.580;7.228;2023-01-28T01:40:15;5.93;;;3.42;;
35835;SDS011;21955;50.580;7.228;2023-01-28T01:42:43;5.13;;;3.20;;
35835;SDS011;21955;50.580;7.228;2023-01-28T01:45:11;4.93;;;3.30;;
35835;SDS011;21955;50.580;7.228;2023-01-28T01:47:41;4.65;;;3.30;;
35835;SDS011;21955;50.580;7.228;2023-01-28T01:50:15;3.85;;;2.85;;
35835;SDS011;21955;50.580;7.228;2023-01-28T01:52:44;5.60;;;3.40;;
35835;SDS011;21955;50.580;7.228;2023-01-28T01:55:13;5.47;;;3.00;;
35835;SDS011;21955;50.580;7.228;2023-01-28T01:57:42;4.35;;;3.00;;
35835;SDS011;21955;50.580;7.228;2023-01-28T02:00:11;4.63;;;3.20;;
35835;SDS011;21955;50.580;7.228;2023-01-28T02:02:41;5.15;;;3.60;;
35835;SDS011;21955;50.580;7.228;2023-01-28T02:05:09;5.35;;;3.28;;
35835;SDS011;21955;50.580;7.228;2023-01-28T02:07:37;4.93;;;3.25;;
35835;SDS011;21955;50.580;7.228;2023-01-28T02:10:05;4.87;;;3.40;;
35835;SDS011;21955;50.580;7.228;2023-01-28T02:12:33;5.03;;;3.10;;
35835;SDS011;21955;50.580;7.228;2023-01-28T02:15:02;5.22;;;3.42;;
35835;SDS011;21955;50.580;7.228;2023-01-28T02:17:30;5.35;;;3.30;;
35835;SDS011;21955;50.580;7.228;2023-01-28T02:19:59;5.30;;;3.20;;
35835;SDS011;21955;50.580;7.228;2023-01-28T02:25:29;4.68;;;3.10;;
35835;SDS011;21955;50.580;7.228;2023-01-28T02:28:10;5.00;;;3.13;;
35835;SDS011;21955;50.580;7.228;2023-01-28T02:30:41;6.78;;;3.13;;
35835;SDS011;21955;50.580;7.228;2023-01-28T02:33:09;4.68;;;3.00;;
35835;SDS011;21955;50.580;7.228;2023-01-28T02:35:38;5.60;;;3.30;;
35835;SDS011;21955;50.580;7.228;2023-01-28T02:38:07;4.78;;;3.17;;
35835;SDS011;21955;50.580;7.228;2023-01-28T02:40:36;5.43;;;3.40;;
35835;SDS011;21955;50.580;7.228;2023-01-28T02:43:31;5.30;;;3.30;;
35835;SDS011;21955;50.580;7.228;2023-01-28T02:45:58;5.40;;;3.40;;
35835;SDS011;21955;50.580;7.228;2023-01-28T02:48:43;6.45;;;3.50;;
35835;SDS011;21955;50.580;7.228;2023-01-28T02:51:15;4.70;;;3.30;;
35835;SDS011;21955;50.580;7.228;2023-01-28T02:53:44;5.80;;;3.70;;
35835;SDS011;21955;50.580;7.228;2023-01-28T02:56:18;5.85;;;3.47;;
35835;SDS011;21955;50.580;7.228;2023-01-28T02:58:55;6.07;;;3.00;;
35835;SDS011;21955;50.580;7.228;2023-01-28T03:01:27;5.00;;;3.38;;
35835;SDS011;21955;50.580;7.228;2023-01-28T03:03:58;5.88;;;3.70;;
35835;SDS011;21955;50.580;7.228;2023-01-28T03:06:27;5.07;;;3.42;;
35835;SDS011;21955;50.580;7.228;2023-01-28T03:08:58;6.38;;;3.80;;
35835;SDS011;21955;50.580;7.228;2023-01-28T03:11:43;6.10;;;3.95;;
35835;SDS011;21955;50.580;7.228;2023-01-28T03:14:31;6.03;;;4.00;;
35835;SDS011;21955;50.580;7.228;2023-01-28T03:17:18;5.87;;;3.60;;
35835;SDS011;21955;50.580;7.228;2023-01-28T03:20:05;6.90;;;3.80;;
35835;SDS011;21955;50.580;7.228;2023-01-28T03:22:50;5.95;;;3.80;;
35835;SDS011;21955;50.580;7.228;2023-01-28T03:25:36;6.80;;;3.90;;
35835;SDS011;21955;50.580;7.228;2023-01-28T03:28:23;5.78;;;3.85;;
35835;SDS011;21955;50.580;7.228;2023-01-28T03:31:11;6.25;;;3.90;;
35835;SDS011;21955;50.580;7.228;2023-01-28T03:33:57;6.53;;;4.00;;
35835;SDS011;21955;50.580;7.228;2023-01-28T03:36:42;6.65;;;3.70;;
35835;SDS011;21955;50.580;7.228;2023-01-28T03:39:14;6.10;;;3.95;;
35835;SDS011;21955;50.580;7.228;2023-01-28T03:41:42;7.05;;;4.18;;
35835;SDS011;21955;50.580;7.228;2023-01-28T03:44:10;6.78;;;4.40;;
35835;SDS011;21955;50.580;7.228;2023-01-28T03:46:56;7.40;;;4.40;;
35835;SDS011;21955;50.580;7.228;2023-01-28T03:49:23;6.13;;;4.15;;
35835;SDS011;21955;50.580;7.228;2023-01-28T03:51:50;7.55;;;4.25;;
35835;SDS011;21955;50.580;7.228;2023-01-28T03:54:17;7.43;;;3.90;;
35835;SDS011;21955;50.580;7.228;2023-01-28T03:56:44;5.93;;;4.10;;
35835;SDS011;21955;50.580;7.228;2023-01-28T03:59:14;7.00;;;4.45;;
35835;SDS011;21955;50.580;7.228;2023-01-28T04:01:44;7.68;;;4.40;;
35835;SDS011;21955;50.580;7.228;2023-01-28T04:04:16;6.32;;;4.13;;
35835;SDS011;21955;50.580;7.228;2023-01-28T04:06:47;7.10;;;4.35;;
35835;SDS011;21955;50.580;7.228;2023-01-28T04:09:14;6.97;;;4.60;;
35835;SDS011;21955;50.580;7.228;2023-01-28T04:11:41;6.47;;;4.30;;
35835;SDS011;21955;50.580;7.228;2023-01-28T04:14:08;6.23;;;4.27;;
35835;SDS011;21955;50.580;7.228;2023-01-28T04:16:36;7.03;;;4.22;;
35835;SDS011;21955;50.580;7.228;2023-01-28T04:19:03;6.30;;;4.18;;
35835;SDS011;21955;50.580;7.228;2023-01-28T04:21:32;7.93;;;4.30;;
35835;SDS011;21955;50.580;7.228;2023-01-28T04:23:59;7.13;;;4.22;;
35835;SDS011;21955;50.580;7.228;2023-01-28T04:26:26;7.20;;;4.20;;
35835;SDS011;21955;50.580;7.228;2023-01-28T04:28:53;7.88;;;4.20;;
35835;SDS011;21955;50.580;7.228;2023-01-28T04:31:20;7.83;;;4.10;;
35835;SDS011;21955;50.580;7.228;2023-01-28T04:33:50;7.90;;;4.30;;
35835;SDS011;21955;50.580;7.228;2023-01-28T04:36:17;7.97;;;4.35;;
35835;SDS011;21955;50.580;7.228;2023-01-28T04:38:46;7.45;;;4.43;;
35835;SDS011;21955;50.580;7.228;2023-01-28T04:41:13;8.00;;;4.57;;
35835;SDS011;21955;50.580;7.228;2023-01-28T04:43:41;7.32;;;4.15;;
35835;SDS011;21955;50.580;7.228;2023-01-28T04:46:08;7.53;;;4.43;;
35835;SDS011;21955;50.580;7.228;2023-01-28T04:48:35;8.60;;;4.65;;
35835;SDS011;21955;50.580;7.228;2023-01-28T04:51:05;8.25;;;4.47;;
35835;SDS011;21955;50.580;7.228;2023-01-28T04:53:32;8.70;;;4.80;;
35835;SDS011;21955;50.580;7.228;2023-01-28T04:56:01;7.53;;;4.60;;
35835;SDS011;21955;50.580;7.228;2023-01-28T04:58:28;7.05;;;4.65;;
35835;SDS011;21955;50.580;7.228;2023-01-28T05:00:55;8.25;;;4.53;;
35835;SDS011;21955;50.580;7.228;2023-01-28T05:03:23;6.85;;;4.30;;
35835;SDS011;21955;50.580;7.228;2023-01-28T05:05:50;7.60;;;4.70;;
35835;SDS011;21955;50.580;7.228;2023-01-28T05:08:18;8.32;;;5.10;;
35835;SDS011;21955;50.580;7.228;2023-01-28T05:10:45;7.38;;;4.80;;
35835;SDS011;21955;50.580;7.228;2023-01-28T05:13:13;9.10;;;5.50;;
35835;SDS011;21955;50.580;7.228;2023-01-28T05:15:40;9.48;;;5.30;;
35835;SDS011;21955;50.580;7.228;2023-01-28T05:18:07;8.02;;;5.07;;
35835;SDS011;21955;50.580;7.228;2023-01-28T05:20:35;9.57;;;5.80;;
35835;SDS011;21955;50.580;7.228;2023-01-28T05:23:02;8.93;;;5.38;;
35835;SDS011;21955;50.580;7.228;2023-01-28T05:25:29;10.80;;;6.03;;
35835;SDS011;21955;50.580;7.228;2023-01-28T05:27:56;9.90;;;6.10;;
35835;SDS011;21955;50.580;7.228;2023-01-28T05:30:24;10.52;;;6.28;;
35835;SDS011;21955;50.580;7.228;2023-01-28T05:32:53;10.48;;;6.00;;
35835;SDS011;21955;50.580;7.228;2023-01-28T05:35:21;10.23;;;6.25;;
35835;SDS011;21955;50.580;7.228;2023-01-28T05:37:48;8.73;;;5.88;;
35835;SDS011;21955;50.580;7.228;2023-01-28T05:40:15;11.15;;;6.80;;
35835;SDS011;21955;50.580;7.228;2023-01-28T05:42:42;14.00;;;6.70;;
35835;SDS011;21955;50.580;7.228;2023-01-28T05:45:10;10.73;;;6.63;;
35835;SDS011;21955;50.580;7.228;2023-01-28T05:47:38;11.50;;;7.35;;
35835;SDS011;21955;50.580;7.228;2023-01-28T05:50:06;13.00;;;7.15;;
35835;SDS011;21955;50.580;7.228;2023-01-28T05:52:33;10.75;;;6.68;;
35835;SDS011;21955;50.580;7.228;2023-01-28T05:55:00;12.07;;;6.83;;
35835;SDS011;21955;50.580;7.228;2023-01-28T05:57:28;11.03;;;7.23;;
35835;SDS011;21955;50.580;7.228;2023-01-28T05:59:55;11.57;;;6.95;;
35835;SDS011;21955;50.580;7.228;2023-01-28T06:02:22;12.15;;;6.82;;
35835;SDS011;21955;50.580;7.228;2023-01-28T06:04:50;13.15;;;7.30;;
35835;SDS011;21955;50.580;7.228;2023-01-28T06:07:18;11.17;;;7.13;;
35835;SDS011;21955;50.580;7.228;2023-01-28T06:09:45;12.82;;;7.32;;
35835;SDS011;21955;50.580;7.228;2023-01-28T06:12:12;11.05;;;7.00;;
35835;SDS011;21955;50.580;7.228;2023-01-28T06:14:40;11.63;;;7.07;;
35835;SDS011;21955;50.580;7.228;2023-01-28T06:17:07;11.57;;;7.38;;
35835;SDS011;21955;50.580;7.228;2023-01-28T06:19:34;12.63;;;6.90;;
35835;SDS011;21955;50.580;7.228;2023-01-28T06:22:02;11.45;;;7.10;;
35835;SDS011;21955;50.580;7.228;2023-01-28T06:24:30;13.45;;;7.35;;
35835;SDS011;21955;50.580;7.228;2023-01-28T06:26:57;11.65;;;7.28;;
35835;SDS011;21955;50.580;7.228;2023-01-28T06:29:24;12.82;;;7.10;;
35835;SDS011;21955;50.580;7.228;2023-01-28T06:31:51;12.88;;;6.93;;
35835;SDS011;21955;50.580;7.228;2023-01-28T06:34:18;12.98;;;7.50;;
35835;SDS011;21955;50.580;7.228;2023-01-28T06:36:45;11.50;;;6.88;;
35835;SDS011;21955;50.580;7.228;2023-01-28T06:39:16;11.05;;;7.07;;
35835;SDS011;21955;50.580;7.228;2023-01-28T06:41:45;11.07;;;6.72;;
35835;SDS011;21955;50.580;7.228;2023-01-28T06:44:12;12.45;;;7.47;;
35835;SDS011;21955;50.580;7.228;2023-01-28T06:46:39;11.68;;;7.22;;
35835;SDS011;21955;50.580;7.228;2023-01-28T06:49:06;12.57;;;7.28;;
35835;SDS011;21955;50.580;7.228;2023-01-28T06:51:33;9.52;;;6.53;;
35835;SDS011;21955;50.580;7.228;2023-01-28T06:54:00;11.48;;;6.53;;
35835;SDS011;21955;50.580;7.228;2023-01-28T06:56:29;10.37;;;6.70;;
35835;SDS011;21955;50.580;7.228;2023-01-28T06:58:56;11.80;;;7.07;;
35835;SDS011;21955;50.580;7.228;2023-01-28T07:01:23;10.27;;;6.53;;
35835;SDS011;21955;50.580;7.228;2023-01-28T07:03:50;12.03;;;6.70;;
35835;SDS011;21955;50.580;7.228;2023-01-28T07:06:22;12.23;;;6.68;;
35835;SDS011;21955;50.580;7.228;2023-01-28T07:08:49;11.35;;;6.88;;
35835;SDS011;21955;50.580;7.228;2023-01-28T07:11:17;12.90;;;6.77;;
35835;SDS011;21955;50.580;7.228;2023-01-28T07:13:45;11.70;;;7.10;;
35835;SDS011;21955;50.580;7.228;2023-01-28T07:16:12;11.73;;;7.07;;
35835;SDS011;21955;50.580;7.228;2023-01-28T07:18:39;12.05;;;7.40;;
35835;SDS011;21955;50.580;7.228;2023-01-28T07:21:06;12.45;;;7.00;;
35835;SDS011;21955;50.580;7.228;2023-01-28T07:23:33;10.60;;;7.07;;
35835;SDS011;21955;50.580;7.228;2023-01-28T07:26:01;11.87;;;6.77;;
35835;SDS011;21955;50.580;7.228;2023-01-28T07:28:28;11.38;;;6.80;;
35835;SDS011;21955;50.580;7.228;2023-01-28T07:30:57;10.50;;;6.70;;
35835;SDS011;21955;50.580;7.228;2023-01-28T07:33:24;12.00;;;6.77;;
35835;SDS011;21955;50.580;7.228;2023-01-28T07:35:51;10.70;;;6.63;;
35835;SDS011;21955;50.580;7.228;2023-01-28T07:38:18;9.93;;;6.55;;
35835;SDS011;21955;50.580;7.228;2023-01-28T07:40:45;10.38;;;6.60;;
35835;SDS011;21955;50.580;7.228;2023-01-28T07:43:13;9.80;;;6.47;;
35835;SDS011;21955;50.580;7.228;2023-01-28T07:45:40;10.02;;;6.25;;
35835;SDS011;21955;50.580;7.228;2023-01-28T07:48:10;10.27;;;6.30;;
35835;SDS011;21955;50.580;7.228;2023-01-28T07:50:38;10.00;;;6.28;;
35835;SDS011;21955;50.580;7.228;2023-01-28T07:53:06;10.82;;;6.10;;
35835;SDS011;21955;50.580;7.228;2023-01-28T07:55:33;10.13;;;6.07;;
35835;SDS011;21955;50.580;7.228;2023-01-28T07:58:01;12.05;;;6.60;;
35835;SDS011;21955;50.580;7.228;2023-01-28T08:00:29;9.43;;;6.07;;
35835;SDS011;21955;50.580;7.228;2023-01-28T08:02:57;11.20;;;5.90;;
35835;SDS011;21955;50.580;7.228;2023-01-28T08:05:27;12.27;;;6.03;;
35835;SDS011;21955;50.580;7.228;2023-01-28T08:07:56;9.43;;;5.80;;
35835;SDS011;21955;50.580;7.228;2023-01-28T08:10:23;9.70;;;5.60;;
35835;SDS011;21955;50.580;7.228;2023-01-28T08:12:51;10.02;;;5.60;;
35835;SDS011;21955;50.580;7.228;2023-01-28T08:15:18;11.10;;;5.95;;
35835;SDS011;21955;50.580;7.228;2023-01-28T08:17:45;9.57;;;5.90;;
35835;SDS011;21955;50.580;7.228;2023-01-28T08:20:12;8.52;;;5.40;;
35835;SDS011;21955;50.580;7.228;2023-01-28T08:22:41;11.15;;;5.72;;
35835;SDS011;21955;50.580;7.228;2023-01-28T08:25:08;9.70;;;5.53;;
35835;SDS011;21955;50.580;7.228;2023-01-28T08:27:35;8.30;;;5.30;;
35835;SDS011;21955;50.580;7.228;2023-01-28T08:30:03;8.13;;;5.50;;
35835;SDS011;21955;50.580;7.228;2023-01-28T08:32:30;8.57;;;5.47;;
35835;SDS011;21955;50.580;7.228;2023-01-28T08:34:57;10.85;;;6.20;;
35835;SDS011;21955;50.580;7.228;2023-01-28T08:37:24;10.77;;;6.18;;
35835;SDS011;21955;50.580;7.228;2023-01-28T08:39:52;10.77;;;6.28;;
35835;SDS011;21955;50.580;7.228;2023-01-28T08:42:20;10.40;;;6.32;;
35835;SDS011;21955;50.580;7.228;2023-01-28T08:44:47;9.68;;;6.10;;
35835;SDS011;21955;50.580;7.228;2023-01-28T08:47:14;11.02;;;6.55;;
35835;SDS011;21955;50.580;7.228;2023-01-28T08:49:41;10.55;;;6.20;;
35835;SDS011;21955;50.580;7.228;2023-01-28T08:52:08;10.60;;;6.23;;
35835;SDS011;21955;50.580;7.228;2023-01-28T08:54:36;9.52;;;5.70;;
35835;SDS011;21955;50.580;7.228;2023-01-28T08:57:05;8.38;;;5.30;;
35835;SDS011;21955;50.580;7.228;2023-01-28T08:59:32;10.40;;;5.50;;
35835;SDS011;21955;50.580;7.228;2023-01-28T09:01:59;9.90;;;5.72;;
35835;SDS011;21955;50.580;7.228;2023-01-28T09:04:26;8.85;;;5.38;;
35835;SDS011;21955;50.580;7.228;2023-01-28T09:06:53;8.20;;;4.90;;
35835;SDS011;21955;50.580;7.228;2023-01-28T09:09:20;8.52;;;4.78;;
35835;SDS011;21955;50.580;7.228;2023-01-28T09:11:48;7.70;;;5.00;;
35835;SDS011;21955;50.580;7.228;2023-01-28T09:14:16;8.10;;;4.97;;
35835;SDS011;21955;50.580;7.228;2023-01-28T09:16:43;8.88;;;4.97;;
35835;SDS011;21955;50.580;7.228;2023-01-28T09:19:11;9.13;;;5.00;;
35835;SDS011;21955;50.580;7.228;2023-01-28T09:21:38;7.35;;;5.00;;
35835;SDS011;21955;50.580;7.228;2023-01-28T09:24:05;8.18;;;4.90;;
35835;SDS011;21955;50.580;7.228;2023-01-28T09:26:36;8.05;;;5.30;;
35835;SDS011;21955;50.580;7.228;2023-01-28T09:29:03;6.85;;;4.45;;
35835;SDS011;21955;50.580;7.228;2023-01-28T09:31:31;9.15;;;4.60;;
35835;SDS011;21955;50.580;7.228;2023-01-28T09:33:58;6.10;;;4.30;;
35835;SDS011;21955;50.580;7.228;2023-01-28T09:36:25;6.28;;;4.68;;
35835;SDS011;21955;50.580;7.228;2023-01-28T09:38:53;7.35;;;4.40;;
35835;SDS011;21955;50.580;7.228;2023-01-28T09:41:23;8.77;;;4.65;;
35835;SDS011;21955;50.580;7.228;2023-01-28T09:44:02;9.98;;;4.93;;
35835;SDS011;21955;50.580;7.228;2023-01-28T09:46:32;20.50;;;8.93;;
35835;SDS011;21955;50.580;7.228;2023-01-28T09:49:02;31.10;;;12.23;;
35835;SDS011;21955;50.580;7.228;2023-01-28T09:51:30;7.45;;;4.88;;
35835;SDS011;21955;50.580;7.228;2023-01-28T09:53:59;6.57;;;4.60;;
35835;SDS011;21955;50.580;7.228;2023-01-28T09:56:29;6.68;;;4.47;;
35835;SDS011;21955;50.580;7.228;2023-01-28T09:58:57;7.20;;;4.65;;
35835;SDS011;21955;50.580;7.228;2023-01-28T10:01:30;6.88;;;4.68;;
35835;SDS011;21955;50.580;7.228;2023-01-28T10:04:02;7.18;;;4.75;;
35835;SDS011;21955;50.580;7.228;2023-01-28T10:06:33;9.10;;;4.72;;
35835;SDS011;21955;50.580;7.228;2023-01-28T10:09:11;6.63;;;4.80;;
35835;SDS011;21955;50.580;7.228;2023-01-28T10:11:50;9.13;;;5.20;;
35835;SDS011;21955;50.580;7.228;2023-01-28T10:14:20;8.50;;;5.20;;
35835;SDS011;21955;50.580;7.228;2023-01-28T10:16:49;9.88;;;5.53;;
35835;SDS011;21955;50.580;7.228;2023-01-28T10:19:20;8.02;;;5.43;;
35835;SDS011;21955;50.580;7.228;2023-01-28T10:21:51;8.63;;;5.50;;
35835;SDS011;21955;50.580;7.228;2023-01-28T10:24:22;9.27;;;5.63;;
35835;SDS011;21955;50.580;7.228;2023-01-28T10:26:50;12.65;;;6.28;;
35835;SDS011;21955;50.580;7.228;2023-01-28T10:29:18;11.48;;;5.90;;
35835;SDS011;21955;50.580;7.228;2023-01-28T10:31:56;8.73;;;5.40;;
35835;SDS011;21955;50.580;7.228;2023-01-28T10:34:26;8.87;;;4.90;;
35835;SDS011;21955;50.580;7.228;2023-01-28T10:36:54;8.33;;;5.03;;
35835;SDS011;21955;50.580;7.228;2023-01-28T10:39:23;8.93;;;5.27;;
35835;SDS011;21955;50.580;7.228;2023-01-28T10:41:51;7.13;;;4.85;;
35835;SDS011;21955;50.580;7.228;2023-01-28T10:44:20;7.63;;;4.88;;
35835;SDS011;21955;50.580;7.228;2023-01-28T10:46:56;8.40;;;5.20;;
35835;SDS011;21955;50.580;7.228;2023-01-28T10:49:27;8.50;;;5.28;;
35835;SDS011;21955;50.580;7.228;2023-01-28T10:51:55;9.80;;;5.73;;
35835;SDS011;21955;50.580;7.228;2023-01-28T10:54:24;9.18;;;5.72;;
35835;SDS011;21955;50.580;7.228;2023-01-28T10:56:52;10.15;;;5.95;;
35835;SDS011;21955;50.580;7.228;2023-01-28T10:59:21;8.23;;;5.70;;
35835;SDS011;21955;50.580;7.228;2023-01-28T11:01:50;7.90;;;5.70;;
35835;SDS011;21955;50.580;7.228;2023-01-28T11:04:19;8.75;;;5.55;;
35835;SDS011;21955;50.580;7.228;2023-01-28T11:06:53;8.82;;;5.80;;
35835;SDS011;21955;50.580;7.228;2023-01-28T11:09:21;10.00;;;6.53;;
35835;SDS011;21955;50.580;7.228;2023-01-28T11:11:48;13.10;;;9.45;;
35835;SDS011;21955;50.580;7.228;2023-01-28T11:14:19;11.23;;;6.30;;
35835;SDS011;21955;50.580;7.228;2023-01-28T11:16:47;8.57;;;5.63;;
35835;SDS011;21955;50.580;7.228;2023-01-28T11:19:14;7.88;;;5.20;;
35835;SDS011;21955;50.580;7.228;2023-01-28T11:21:46;9.40;;;5.63;;
35835;SDS011;21955;50.580;7.228;2023-01-28T11:24:17;8.75;;;5.43;;
35835;SDS011;21955;50.580;7.228;2023-01-28T11:26:46;7.72;;;4.75;;
35835;SDS011;21955;50.580;7.228;2023-01-28T11:29:19;6.80;;;4.85;;
35835;SDS011;21955;50.580;7.228;2023-01-28T11:31:48;6.78;;;4.70;;
35835;SDS011;21955;50.580;7.228;2023-01-28T11:34:16;7.47;;;4.50;;
35835;SDS011;21955;50.580;7.228;2023-01-28T11:36:49;8.82;;;4.90;;
35835;SDS011;21955;50.580;7.228;2023-01-28T11:39:19;9.65;;;5.25;;
35835;SDS011;21955;50.580;7.228;2023-01-28T11:41:47;7.03;;;4.93;;
35835;SDS011;21955;50.580;7.228;2023-01-28T11:44:15;6.75;;;4.95;;
35835;SDS011;21955;50.580;7.228;2023-01-28T11:46:52;7.93;;;5.20;;
35835;SDS011;21955;50.580;7.228;2023-01-28T11:49:25;7.70;;;5.30;;
35835;SDS011;21955;50.580;7.228;2023-01-28T11:51:56;9.65;;;5.38;;
35835;SDS011;21955;50.580;7.228;2023-01-28T11:54:30;8.70;;;5.38;;
35835;SDS011;21955;50.580;7.228;2023-01-28T11:57:08;10.95;;;7.13;;
35835;SDS011;21955;50.580;7.228;2023-01-28T11:59:41;8.23;;;5.28;;
35835;SDS011;21955;50.580;7.228;2023-01-28T12:02:16;7.88;;;5.15;;
35835;SDS011;21955;50.580;7.228;2023-01-28T12:04:51;8.48;;;5.22;;
35835;SDS011;21955;50.580;7.228;2023-01-28T12:07:25;7.13;;;4.80;;
35835;SDS011;21955;50.580;7.228;2023-01-28T12:09:59;8.20;;;5.32;;
35835;SDS011;21955;50.580;7.228;2023-01-28T12:12:33;9.23;;;5.15;;
35835;SDS011;21955;50.580;7.228;2023-01-28T12:15:08;8.63;;;5.35;;
35835;SDS011;21955;50.580;7.228;2023-01-28T12:17:46;7.63;;;5.15;;
35835;SDS011;21955;50.580;7.228;2023-01-28T12:20:19;7.30;;;4.90;;
35835;SDS011;21955;50.580;7.228;2023-01-28T12:22:52;7.73;;;5.13;;
35835;SDS011;21955;50.580;7.228;2023-01-28T12:25:29;9.48;;;5.07;;
35835;SDS011;21955;50.580;7.228;2023-01-28T12:28:00;8.05;;;5.15;;
35835;SDS011;21955;50.580;7.228;2023-01-28T12:30:36;8.00;;;5.13;;
35835;SDS011;21955;50.580;7.228;2023-01-28T12:33:12;8.15;;;5.40;;
35835;SDS011;21955;50.580;7.228;2023-01-28T12:35:41;7.53;;;5.30;;
35835;SDS011;21955;50.580;7.228;2023-01-28T12:38:16;7.00;;;4.95;;
35835;SDS011;21955;50.580;7.228;2023-01-28T12:40:51;8.50;;;4.97;;
35835;SDS011;21955;50.580;7.228;2023-01-28T12:43:22;6.93;;;5.17;;
35835;SDS011;21955;50.580;7.228;2023-01-28T12:45:52;7.65;;;4.90;;
35835;SDS011;21955;50.580;7.228;2023-01-28T12:48:23;7.75;;;5.10;;
35835;SDS011;21955;50.580;7.228;2023-01-28T12:50:53;8.90;;;5.18;;
35835;SDS011;21955;50.580;7.228;2023-01-28T12:53:24;7.65;;;4.72;;
35835;SDS011;21955;50.580;7.228;2023-01-28T12:55:54;8.38;;;4.90;;
35835;SDS011;21955;50.580;7.228;2023-01-28T12:58:30;8.63;;;5.07;;
35835;SDS011;21955;50.580;7.228;2023-01-28T13:01:00;6.28;;;4.20;;
35835;SDS011;21955;50.580;7.228;2023-01-28T13:03:29;6.05;;;4.47;;
35835;SDS011;21955;50.580;7.228;2023-01-28T13:06:01;8.02;;;4.28;;
35835;SDS011;21955;50.580;7.228;2023-01-28T13:08:29;6.93;;;4.33;;
35835;SDS011;21955;50.580;7.228;2023-01-28T13:10:58;6.45;;;4.30;;
35835;SDS011;21955;50.580;7.228;2023-01-28T13:13:28;6.55;;;4.30;;
35835;SDS011;21955;50.580;7.228;2023-01-28T13:15:56;6.13;;;4.17;;
35835;SDS011;21955;50.580;7.228;2023-01-28T13:18:32;7.55;;;4.22;;
35835;SDS011;21955;50.580;7.228;2023-01-28T13:20:59;5.53;;;3.80;;
35835;SDS011;21955;50.580;7.228;2023-01-28T13:23:35;6.47;;;4.28;;
35835;SDS011;21955;50.580;7.228;2023-01-28T13:26:09;5.45;;;3.95;;
35835;SDS011;21955;50.580;7.228;2023-01-28T13:28:37;5.63;;;3.70;;
35835;SDS011;21955;50.580;7.228;2023-01-28T13:31:05;6.97;;;4.15;;
35835;SDS011;21955;50.580;7.228;2023-01-28T13:33:33;5.85;;;3.92;;
35835;SDS011;21955;50.580;7.228;2023-01-28T13:36:01;6.68;;;4.13;;
35835;SDS011;21955;50.580;7.228;2023-01-28T13:38:29;6.25;;;3.90;;
35835;SDS011;21955;50.580;7.228;2023-01-28T13:40:58;5.82;;;3.83;;
35835;SDS011;21955;50.580;7.228;2023-01-28T13:43:35;5.25;;;3.75;;
35835;SDS011;21955;50.580;7.228;2023-01-28T13:46:04;6.85;;;3.90;;
35835;SDS011;21955;50.580;7.228;2023-01-28T13:48:32;7.20;;;3.90;;
35835;SDS011;21955;50.580;7.228;2023-01-28T13:51:00;6.55;;;4.00;;
35835;SDS011;21955;50.580;7.228;2023-01-28T13:53:33;7.80;;;4.80;;
35835;SDS011;21955;50.580;7.228;2023-01-28T13:56:03;9.00;;;4.60;;
35835;SDS011;21955;50.580;7.228;2023-01-28T13:58:39;6.43;;;4.43;;
35835;SDS011;21955;50.580;7.228;2023-01-28T14:01:31;9.52;;;5.10;;
35835;SDS011;21955;50.580;7.228;2023-01-28T14:09:36;5.75;;;4.07;;
35835;SDS011;21955;50.580;7.228;2023-01-28T14:17:38;6.13;;;4.57;;
35835;SDS011;21955;50.580;7.228;2023-01-28T14:20:08;6.00;;;4.15;;
35835;SDS011;21955;50.580;7.228;2023-01-28T14:22:40;6.78;;;4.35;;
35835;SDS011;21955;50.580;7.228;2023-01-28T14:25:10;6.47;;;4.43;;
35835;SDS011;21955;50.580;7.228;2023-01-28T14:27:38;6.22;;;4.20;;
35835;SDS011;21955;50.580;7.228;2023-01-28T14:30:10;6.75;;;4.30;;
35835;SDS011;21955;50.580;7.228;2023-01-28T14:32:45;7.60;;;4.30;;
35835;SDS011;21955;50.580;7.228;2023-01-28T14:35:15;6.28;;;4.57;;
35835;SDS011;21955;50.580;7.228;2023-01-28T14:37:52;8.02;;;5.13;;
35835;SDS011;21955;50.580;7.228;2023-01-28T14:40:20;8.55;;;4.97;;
35835;SDS011;21955;50.580;7.228;2023-01-28T14:42:48;7.78;;;5.05;;
35835;SDS011;21955;50.580;7.228;2023-01-28T14:45:23;6.32;;;4.60;;
35835;SDS011;21955;50.580;7.228;2023-01-28T14:48:01;7.45;;;5.05;;
35835;SDS011;21955;50.580;7.228;2023-01-28T14:50:45;7.78;;;4.75;;
35835;SDS011;21955;50.580;7.228;2023-01-28T14:53:18;7.15;;;4.97;;
35835;SDS011;21955;50.580;7.228;2023-01-28T14:55:52;7.65;;;4.85;;
35835;SDS011;21955;50.580;7.228;2023-01-28T14:58:22;7.45;;;4.75;;
35835;SDS011;21955;50.580;7.228;2023-01-28T15:00:54;8.05;;;5.20;;
35835;SDS011;21955;50.580;7.228;2023-01-28T15:03:24;9.05;;;5.60;;
35835;SDS011;21955;50.580;7.228;2023-01-28T15:06:01;7.60;;;5.07;;
35835;SDS011;21955;50.580;7.228;2023-01-28T15:08:28;7.00;;;4.60;;
35835;SDS011;21955;50.580;7.228;2023-01-28T15:10:56;7.03;;;4.85;;
35835;SDS011;21955;50.580;7.228;2023-01-28T15:13:25;7.72;;;5.05;;
35835;SDS011;21955;50.580;7.228;2023-01-28T15:15:53;9.13;;;6.50;;